createdAt,value
2022-07-31T00:00:20.764Z,7.40
2022-07-31T00:02:48.251Z,5.85
2022-07-31T00:05:15.720Z,6.03
2022-07-31T00:07:43.422Z,6.72
2022-07-31T00:10:11.029Z,5.60
2022-07-31T00:12:38.524Z,5.57
2022-07-31T00:15:10.378Z,5.80
2022-07-31T00:17:38.620Z,5.65
2022-07-31T00:20:06.901Z,6.55
2022-07-31T00:22:35.852Z,5.85
2022-07-31T00:25:03.386Z,6.05
2022-07-31T00:27:30.935Z,6.60
2022-07-31T00:29:58.466Z,7.15
2022-07-31T00:32:27.282Z,7.68
2022-07-31T00:34:54.843Z,6.90
2022-07-31T00:37:22.371Z,9.38
2022-07-31T00:39:50.422Z,6.50
2022-07-31T00:42:18.465Z,5.60
2022-07-31T00:44:47.928Z,5.63
2022-07-31T00:47:16.102Z,6.72
2022-07-31T00:49:45.247Z,5.30
2022-07-31T00:52:13.013Z,6.22
2022-07-31T00:54:40.879Z,4.82
2022-07-31T00:57:08.391Z,7.10
2022-07-31T00:59:35.916Z,7.68
2022-07-31T01:02:03.594Z,6.00
2022-07-31T01:04:31.438Z,8.52
2022-07-31T01:07:01.672Z,6.78
2022-07-31T01:09:29.869Z,6.55
2022-07-31T01:12:00.984Z,7.57
2022-07-31T01:14:29.729Z,6.78
2022-07-31T01:16:58.910Z,7.55
2022-07-31T01:19:42.179Z,6.70
2022-07-31T01:22:34.189Z,6.32
2022-07-31T01:25:05.525Z,11.07
2022-07-31T01:30:03.834Z,6.72
2022-07-31T01:32:35.531Z,8.75
2022-07-31T01:35:04.975Z,7.55
2022-07-31T01:37:34.172Z,10.70
2022-07-31T01:40:04.213Z,8.60
2022-07-31T01:42:32.569Z,9.05
2022-07-31T01:45:01.915Z,8.02
2022-07-31T01:47:32.059Z,9.50
2022-07-31T01:50:01.546Z,7.30
2022-07-31T01:52:30.402Z,8.48
2022-07-31T01:54:59.193Z,9.75
2022-07-31T01:57:27.366Z,8.38
2022-07-31T01:59:56.475Z,9.60
2022-07-31T02:02:24.647Z,9.18
2022-07-31T02:04:56.182Z,12.63
2022-07-31T02:07:24.068Z,9.63
2022-07-31T02:09:58.502Z,8.27
2022-07-31T02:12:33.040Z,8.35
2022-07-31T02:15:02.215Z,8.57
2022-07-31T02:17:29.791Z,6.93
2022-07-31T02:20:00.774Z,8.30
2022-07-31T02:22:29.364Z,10.95
2022-07-31T02:24:56.936Z,10.65
2022-07-31T02:27:54.041Z,11.05
2022-07-31T02:30:13.606Z,8.43
2022-07-31T02:32:41.896Z,9.80
2022-07-31T02:35:10.967Z,7.60
2022-07-31T02:37:39.689Z,10.05
2022-07-31T02:40:08.874Z,7.45
2022-07-31T02:42:36.965Z,9.02
2022-07-31T02:45:04.746Z,8.27
2022-07-31T02:47:33.084Z,7.55
2022-07-31T02:50:00.749Z,9.23
2022-07-31T02:52:29.917Z,7.57
2022-07-31T02:54:58.276Z,8.27
2022-07-31T02:57:25.831Z,9.23
2022-07-31T02:59:53.463Z,7.88
2022-07-31T03:02:21.280Z,8.00
2022-07-31T03:04:48.852Z,9.20
2022-07-31T03:07:17.514Z,8.60
2022-07-31T03:09:47.497Z,7.78
2022-07-31T03:12:14.967Z,6.72
2022-07-31T03:14:42.729Z,9.90
2022-07-31T03:17:10.386Z,9.52
2022-07-31T03:19:38.382Z,10.57
2022-07-31T03:22:06.385Z,10.27
2022-07-31T03:24:34.191Z,9.25
2022-07-31T03:27:03.792Z,8.13
2022-07-31T03:29:42.940Z,6.82
2022-07-31T03:32:11.091Z,9.00
2022-07-31T03:34:38.664Z,7.00
2022-07-31T03:37:06.133Z,9.13
2022-07-31T03:39:33.712Z,9.32
2022-07-31T03:42:02.502Z,9.23
2022-07-31T03:44:32.624Z,8.93
2022-07-31T03:47:00.476Z,9.13
2022-07-31T03:49:28.294Z,9.15
2022-07-31T03:51:55.977Z,11.20
2022-07-31T03:54:23.890Z,10.32
2022-07-31T03:56:52.174Z,9.25
2022-07-31T03:59:20.420Z,11.38
2022-07-31T04:01:56.798Z,10.45
2022-07-31T04:04:25.925Z,12.13
2022-07-31T04:06:53.605Z,9.43
2022-07-31T04:09:21.974Z,10.68
2022-07-31T04:11:49.537Z,11.70
2022-07-31T04:14:17.211Z,10.27
2022-07-31T04:16:44.672Z,9.95
2022-07-31T04:19:13.583Z,10.20
2022-07-31T04:21:41.249Z,10.63
2022-07-31T04:24:08.967Z,11.32
2022-07-31T04:26:36.438Z,8.98
2022-07-31T04:29:04.179Z,11.00
2022-07-31T04:31:31.704Z,11.63
2022-07-31T04:33:59.209Z,9.23
2022-07-31T04:36:30.054Z,12.43
2022-07-31T04:38:58.484Z,9.35
2022-07-31T04:41:26.022Z,9.95
2022-07-31T04:43:53.637Z,12.30
2022-07-31T04:46:21.267Z,9.07
2022-07-31T04:48:49.147Z,8.45
2022-07-31T04:51:17.777Z,10.55
2022-07-31T04:53:46.699Z,11.23
2022-07-31T04:56:32.132Z,9.63
2022-07-31T04:58:59.956Z,9.65
2022-07-31T05:01:27.760Z,10.73
2022-07-31T05:03:55.314Z,9.43
2022-07-31T05:06:22.809Z,10.85
2022-07-31T05:08:51.696Z,9.75
2022-07-31T05:11:24.859Z,11.07
2022-07-31T05:13:52.480Z,14.77
2022-07-31T05:16:20.113Z,9.90
2022-07-31T05:18:47.975Z,11.18
2022-07-31T05:21:16.019Z,9.90
2022-07-31T05:23:44.233Z,12.50
2022-07-31T05:26:13.235Z,9.23
2022-07-31T05:28:41.063Z,7.90
2022-07-31T05:31:10.985Z,11.38
2022-07-31T05:33:38.481Z,10.77
2022-07-31T05:36:06.480Z,13.68
2022-07-31T05:38:34.073Z,8.38
2022-07-31T05:41:01.725Z,10.57
2022-07-31T05:43:30.579Z,12.82
2022-07-31T05:45:58.080Z,10.20
2022-07-31T05:48:25.841Z,10.63
2022-07-31T05:50:53.411Z,12.13
2022-07-31T05:53:21.077Z,12.95
2022-07-31T05:55:49.161Z,12.60
2022-07-31T05:58:17.363Z,10.88
2022-07-31T06:00:47.285Z,10.73
2022-07-31T06:03:15.434Z,11.13
2022-07-31T06:05:43.233Z,10.30
2022-07-31T06:08:10.917Z,9.13
2022-07-31T06:10:38.519Z,9.98
2022-07-31T06:13:06.625Z,10.27
2022-07-31T06:15:36.600Z,10.10
2022-07-31T06:18:05.852Z,9.98
2022-07-31T06:20:33.481Z,11.23
2022-07-31T06:23:14.699Z,9.30
2022-07-31T06:25:52.522Z,10.60
2022-07-31T06:28:20.190Z,9.40
2022-07-31T06:30:56.591Z,14.60
2022-07-31T06:33:37.569Z,7.93
2022-07-31T06:36:05.501Z,8.25
2022-07-31T06:38:32.997Z,11.25
2022-07-31T06:41:00.712Z,13.20
2022-07-31T06:43:28.228Z,9.95
2022-07-31T06:45:55.732Z,10.23
2022-07-31T06:48:24.964Z,9.68
2022-07-31T06:51:14.550Z,9.27
2022-07-31T06:53:43.415Z,7.85
2022-07-31T06:56:10.952Z,9.60
2022-07-31T06:58:38.915Z,9.18
2022-07-31T07:01:06.434Z,7.97
2022-07-31T07:03:35.309Z,8.93
2022-07-31T07:06:03.480Z,9.38
2022-07-31T07:08:30.968Z,8.73
2022-07-31T07:10:58.661Z,7.60
2022-07-31T07:13:45.325Z,8.98
2022-07-31T07:16:14.160Z,10.77
2022-07-31T07:18:43.445Z,8.70
2022-07-31T07:21:11.432Z,6.88
2022-07-31T07:23:38.959Z,8.15
2022-07-31T07:26:06.732Z,8.90
2022-07-31T07:28:34.299Z,6.47
2022-07-31T07:31:03.255Z,7.80
2022-07-31T07:33:41.044Z,7.68
2022-07-31T07:36:24.146Z,6.80
2022-07-31T07:38:53.433Z,4.80
2022-07-31T07:41:21.287Z,5.70
2022-07-31T07:43:51.738Z,6.97
2022-07-31T07:46:20.564Z,10.60
2022-07-31T07:48:49.176Z,6.20
2022-07-31T07:51:18.239Z,7.60
2022-07-31T07:53:45.706Z,5.45
2022-07-31T07:56:13.332Z,8.55
2022-07-31T07:58:40.963Z,6.25
2022-07-31T08:01:08.877Z,6.65
2022-07-31T08:03:49.598Z,4.90
2022-07-31T08:06:21.070Z,6.45
2022-07-31T08:08:48.541Z,7.57
2022-07-31T08:11:17.156Z,5.78
2022-07-31T08:13:50.142Z,8.07
2022-07-31T08:16:18.472Z,5.07
2022-07-31T08:18:45.975Z,6.30
2022-07-31T08:21:13.562Z,5.18
2022-07-31T08:23:42.425Z,7.65
2022-07-31T08:26:09.997Z,5.90
2022-07-31T08:28:39.146Z,4.53
2022-07-31T08:31:06.860Z,8.52
2022-07-31T08:33:34.372Z,6.93
2022-07-31T08:36:02.439Z,4.57
2022-07-31T08:38:29.984Z,4.80
2022-07-31T08:40:58.861Z,4.15
2022-07-31T08:44:02.930Z,5.25
2022-07-31T08:46:15.007Z,4.28
2022-07-31T08:48:43.155Z,4.80
2022-07-31T08:51:12.120Z,4.57
2022-07-31T08:53:40.475Z,6.60
2022-07-31T08:56:09.578Z,4.78
2022-07-31T08:58:39.712Z,3.55
2022-07-31T09:01:08.337Z,5.28
2022-07-31T09:03:36.309Z,3.58
2022-07-31T09:06:03.936Z,4.95
2022-07-31T09:08:32.546Z,9.88
2022-07-31T09:11:06.077Z,6.00
2022-07-31T09:13:35.821Z,7.53
2022-07-31T09:16:03.769Z,5.80
2022-07-31T09:18:31.485Z,4.13
2022-07-31T09:21:00.478Z,4.18
2022-07-31T09:23:30.217Z,7.53
2022-07-31T09:25:58.295Z,4.35
2022-07-31T09:28:37.577Z,6.22
2022-07-31T09:31:05.793Z,6.25
2022-07-31T09:33:33.964Z,7.32
2022-07-31T09:36:01.493Z,7.40
2022-07-31T09:38:33.212Z,4.88
2022-07-31T09:41:16.640Z,4.70
2022-07-31T09:44:00.991Z,4.68
2022-07-31T09:46:28.631Z,4.13
2022-07-31T09:49:00.141Z,5.43
2022-07-31T09:51:38.323Z,3.60
2022-07-31T09:54:06.033Z,7.03
2022-07-31T09:56:34.130Z,4.78
2022-07-31T09:59:03.443Z,4.88
2022-07-31T10:01:32.009Z,3.60
2022-07-31T10:04:01.217Z,4.60
2022-07-31T10:06:30.213Z,7.10
2022-07-31T10:08:58.116Z,4.05
2022-07-31T10:11:26.029Z,6.22
2022-07-31T10:13:57.494Z,5.43
2022-07-31T10:16:28.310Z,4.80
2022-07-31T10:18:58.899Z,3.13
2022-07-31T10:21:29.055Z,5.72
2022-07-31T10:23:57.283Z,4.55
2022-07-31T10:26:50.304Z,7.30
2022-07-31T10:29:12.828Z,5.28
2022-07-31T10:31:41.741Z,4.90
2022-07-31T10:34:09.195Z,3.78
2022-07-31T10:36:38.305Z,5.07
2022-07-31T10:39:09.609Z,4.63
2022-07-31T10:41:45.218Z,5.78
2022-07-31T10:44:13.783Z,5.10
2022-07-31T10:46:42.672Z,5.50
2022-07-31T10:49:10.210Z,6.45
2022-07-31T10:51:46.778Z,4.50
2022-07-31T10:54:15.572Z,7.88
2022-07-31T10:56:43.956Z,4.90
2022-07-31T10:59:12.185Z,4.10
2022-07-31T11:01:53.059Z,4.35
2022-07-31T11:04:27.321Z,4.32
2022-07-31T11:06:54.808Z,4.85
2022-07-31T11:09:25.445Z,5.85
2022-07-31T11:11:53.209Z,5.05
2022-07-31T11:14:31.624Z,7.57
2022-07-31T11:17:00.763Z,8.20
2022-07-31T11:19:40.873Z,3.97
2022-07-31T11:22:30.459Z,9.73
2022-07-31T11:25:00.695Z,4.38
2022-07-31T11:27:31.984Z,5.35
2022-07-31T11:30:07.798Z,7.95
2022-07-31T11:32:39.983Z,7.35
2022-07-31T11:35:07.937Z,3.60
2022-07-31T11:37:56.419Z,3.88
2022-07-31T11:40:27.394Z,5.22
2022-07-31T11:43:24.256Z,4.65
2022-07-31T11:45:47.082Z,4.10
2022-07-31T11:48:18.968Z,7.53
2022-07-31T11:50:46.996Z,5.10
2022-07-31T11:53:14.444Z,3.60
2022-07-31T11:55:45.930Z,5.38
2022-07-31T11:58:13.488Z,6.18
2022-07-31T12:00:46.660Z,8.15
2022-07-31T12:03:14.298Z,4.60
2022-07-31T12:05:46.372Z,7.72
2022-07-31T12:08:14.487Z,5.20
2022-07-31T12:10:42.435Z,4.63
2022-07-31T12:13:16.056Z,4.45
2022-07-31T12:15:54.504Z,4.38
2022-07-31T12:18:22.012Z,6.57
2022-07-31T12:20:54.409Z,5.38
2022-07-31T12:23:40.571Z,5.10
2022-07-31T12:26:09.471Z,6.28
2022-07-31T12:28:37.007Z,6.32
2022-07-31T12:31:04.630Z,4.13
2022-07-31T12:33:40.982Z,4.53
2022-07-31T12:36:13.703Z,4.15
2022-07-31T12:38:48.511Z,7.28
2022-07-31T12:41:16.515Z,4.75
2022-07-31T12:43:51.338Z,4.75
2022-07-31T12:46:20.928Z,5.25
2022-07-31T12:48:48.449Z,5.57
2022-07-31T12:51:21.222Z,5.88
2022-07-31T12:54:07.883Z,5.38
2022-07-31T12:56:35.590Z,6.57
2022-07-31T12:59:03.232Z,3.97
2022-07-31T13:01:30.968Z,5.07
2022-07-31T13:03:59.359Z,7.47
2022-07-31T13:06:29.918Z,5.68
2022-07-31T13:08:57.455Z,6.75
2022-07-31T13:11:26.048Z,6.90
2022-07-31T13:13:56.783Z,4.13
2022-07-31T13:16:24.311Z,8.65
2022-07-31T13:18:51.862Z,5.47
2022-07-31T13:21:19.355Z,6.15
2022-07-31T13:23:48.188Z,4.93
2022-07-31T13:26:15.721Z,3.60
2022-07-31T13:28:43.233Z,3.78
2022-07-31T13:31:10.712Z,4.55
2022-07-31T13:33:38.251Z,4.80
2022-07-31T13:36:06.475Z,4.00
2022-07-31T13:38:33.936Z,3.67
2022-07-31T13:41:20.288Z,4.75
2022-07-31T13:44:00.109Z,5.30
2022-07-31T13:46:28.660Z,4.15
2022-07-31T13:48:58.803Z,3.95
2022-07-31T13:51:28.877Z,4.30
2022-07-31T13:53:56.620Z,5.50
2022-07-31T13:56:42.324Z,3.70
2022-07-31T13:59:11.449Z,4.32
2022-07-31T14:02:13.503Z,4.80
2022-07-31T14:04:30.342Z,3.55
2022-07-31T14:07:00.868Z,4.00
2022-07-31T14:09:28.651Z,4.35
2022-07-31T14:11:57.475Z,5.75
2022-07-31T14:14:25.157Z,4.60
2022-07-31T14:16:52.697Z,6.95
2022-07-31T14:19:20.878Z,4.30
2022-07-31T14:21:50.003Z,4.03
2022-07-31T14:26:51.573Z,4.30
2022-07-31T14:29:20.562Z,4.78
2022-07-31T14:31:48.061Z,4.13
2022-07-31T14:34:15.564Z,4.13
2022-07-31T14:36:43.071Z,4.32
2022-07-31T14:39:10.559Z,5.32
2022-07-31T14:41:38.012Z,4.45
2022-07-31T14:44:05.658Z,4.22
2022-07-31T14:46:35.455Z,3.88
2022-07-31T14:49:04.448Z,3.88
2022-07-31T14:51:32.013Z,3.78
2022-07-31T14:53:59.626Z,6.57
2022-07-31T14:56:45.445Z,4.38
2022-07-31T14:59:14.854Z,4.55
2022-07-31T15:01:43.706Z,7.55
2022-07-31T15:04:11.253Z,5.80
2022-07-31T15:06:52.852Z,6.25
2022-07-31T15:09:23.354Z,4.47
2022-07-31T15:11:59.510Z,3.65
2022-07-31T15:14:28.918Z,6.75
2022-07-31T15:16:57.715Z,5.22
2022-07-31T15:19:25.328Z,4.80
2022-07-31T15:22:16.140Z,4.72
2022-07-31T15:24:45.544Z,6.28
2022-07-31T15:27:16.945Z,5.10
2022-07-31T15:30:04.048Z,5.32
2022-07-31T15:32:33.266Z,4.05
2022-07-31T15:35:00.776Z,3.38
2022-07-31T15:37:28.385Z,3.92
2022-07-31T15:40:02.145Z,4.20
2022-07-31T15:42:31.052Z,5.97
2022-07-31T15:44:58.511Z,4.05
2022-07-31T15:47:26.153Z,3.55
2022-07-31T15:49:55.080Z,5.50
2022-07-31T15:52:22.669Z,4.78
2022-07-31T15:54:51.816Z,4.10
2022-07-31T15:59:47.254Z,7.18
2022-07-31T16:02:14.928Z,6.05
2022-07-31T16:04:46.450Z,3.47
2022-07-31T16:08:31.203Z,2.58
2022-07-31T16:12:43.575Z,5.15
2022-07-31T16:15:12.222Z,3.17
2022-07-31T16:17:39.817Z,3.75
2022-07-31T16:20:08.698Z,5.13
2022-07-31T16:22:37.759Z,5.40
2022-07-31T16:25:06.360Z,3.55
2022-07-31T16:27:33.924Z,3.28
2022-07-31T16:30:02.626Z,4.68
2022-07-31T16:32:31.216Z,6.53
2022-07-31T16:35:01.390Z,4.57
2022-07-31T16:37:50.165Z,3.38
2022-07-31T16:40:30.104Z,3.75
2022-07-31T16:43:00.777Z,3.10
2022-07-31T16:45:28.571Z,3.88
2022-07-31T16:47:56.007Z,4.50
2022-07-31T16:50:23.659Z,4.63
2022-07-31T16:52:54.647Z,3.80
2022-07-31T16:55:59.859Z,4.60
2022-07-31T16:58:11.925Z,5.82
2022-07-31T17:00:39.827Z,4.38
2022-07-31T17:03:58.716Z,5.28
2022-07-31T17:05:55.560Z,3.53
2022-07-31T17:08:23.059Z,3.50
2022-07-31T17:10:54.665Z,3.03
2022-07-31T17:13:22.607Z,4.85
2022-07-31T17:15:50.172Z,4.20
2022-07-31T17:18:17.719Z,3.70
2022-07-31T17:20:47.968Z,3.75
2022-07-31T17:23:15.796Z,4.78
2022-07-31T17:25:43.448Z,5.13
2022-07-31T17:28:15.362Z,3.30
2022-07-31T17:30:44.898Z,4.35
2022-07-31T17:33:12.605Z,5.63
2022-07-31T17:35:40.064Z,5.85
2022-07-31T17:38:07.548Z,3.47
2022-07-31T17:40:44.132Z,5.18
2022-07-31T17:43:13.442Z,4.25
2022-07-31T17:45:59.273Z,4.90
2022-07-31T17:48:28.636Z,6.18
2022-07-31T17:50:56.104Z,4.57
2022-07-31T17:53:23.656Z,5.05
2022-07-31T17:55:58.803Z,4.30
2022-07-31T17:58:27.695Z,3.28
2022-07-31T18:00:55.561Z,4.53
2022-07-31T18:03:23.438Z,5.63
2022-07-31T18:05:50.935Z,5.30
2022-07-31T18:08:18.383Z,4.13
2022-07-31T18:10:54.410Z,5.95
2022-07-31T18:15:51.495Z,6.70
2022-07-31T18:18:19.154Z,5.50
2022-07-31T18:20:46.665Z,7.30
2022-07-31T18:23:14.463Z,9.15
2022-07-31T18:25:42.754Z,5.78
2022-07-31T18:28:10.316Z,5.30
2022-07-31T18:30:40.956Z,8.07
2022-07-31T18:33:10.843Z,7.43
2022-07-31T18:35:38.301Z,4.20
2022-07-31T18:38:05.808Z,5.10
2022-07-31T18:40:33.422Z,8.25
2022-07-31T18:43:00.973Z,4.30
2022-07-31T18:45:28.729Z,3.97
2022-07-31T18:47:56.296Z,4.20
2022-07-31T18:50:58.983Z,5.63
2022-07-31T18:53:13.204Z,5.30
2022-07-31T18:55:40.763Z,6.15
2022-07-31T18:58:09.157Z,8.30
2022-07-31T19:00:36.736Z,6.50
2022-07-31T19:03:05.196Z,6.15
2022-07-31T19:05:34.059Z,3.83
2022-07-31T19:08:01.591Z,5.05
2022-07-31T19:10:31.160Z,4.05
2022-07-31T19:15:26.549Z,5.90
2022-07-31T19:17:54.852Z,4.43
2022-07-31T19:20:53.851Z,5.55
2022-07-31T19:23:17.017Z,4.88
2022-07-31T19:25:55.710Z,7.05
2022-07-31T19:28:30.847Z,5.05
2022-07-31T19:30:58.655Z,5.35
2022-07-31T19:33:26.209Z,8.25
2022-07-31T19:36:00.335Z,6.65
2022-07-31T19:38:30.701Z,7.70
2022-07-31T19:40:58.165Z,7.25
2022-07-31T19:43:25.756Z,7.18
2022-07-31T19:46:02.543Z,5.80
2022-07-31T19:48:40.538Z,5.78
2022-07-31T19:51:08.295Z,6.10
2022-07-31T19:53:37.344Z,9.63
2022-07-31T19:56:06.321Z,5.90
2022-07-31T19:58:34.726Z,7.07
2022-07-31T20:01:02.540Z,8.05
2022-07-31T20:03:30.130Z,5.65
2022-07-31T20:05:58.225Z,7.28
2022-07-31T20:08:25.809Z,5.75
2022-07-31T20:10:57.101Z,8.90
2022-07-31T20:15:53.158Z,7.05
2022-07-31T20:18:27.440Z,12.02
2022-07-31T20:20:57.213Z,7.68
2022-07-31T20:23:24.989Z,7.00
2022-07-31T20:25:52.467Z,9.43
2022-07-31T20:28:21.432Z,5.15
2022-07-31T20:30:49.108Z,17.15
2022-07-31T20:33:16.562Z,19.60
2022-07-31T20:35:47.657Z,18.00
2022-07-31T20:38:17.413Z,8.65
2022-07-31T20:40:53.940Z,7.25
2022-07-31T20:43:24.848Z,17.98
2022-07-31T20:45:52.393Z,5.22
2022-07-31T20:48:21.838Z,9.40
2022-07-31T20:50:49.408Z,7.93
2022-07-31T20:53:16.919Z,12.90
2022-07-31T20:55:46.977Z,9.30
2022-07-31T20:58:14.673Z,8.40
2022-07-31T21:00:43.516Z,7.85
2022-07-31T21:03:11.045Z,7.00
2022-07-31T21:05:38.586Z,11.18
2022-07-31T21:08:06.152Z,6.15
2022-07-31T21:10:34.148Z,5.70
2022-07-31T21:13:01.643Z,5.15
2022-07-31T21:15:43.129Z,7.60
2022-07-31T21:18:13.864Z,4.78
2022-07-31T21:20:52.177Z,5.43
2022-07-31T21:23:21.328Z,6.05
2022-07-31T21:25:48.962Z,8.60
2022-07-31T21:28:16.746Z,5.97
2022-07-31T21:30:44.438Z,5.88
2022-07-31T21:33:12.127Z,6.43
2022-07-31T21:35:41.292Z,5.47
2022-07-31T21:38:11.991Z,4.97
2022-07-31T21:40:40.646Z,7.90
2022-07-31T21:43:08.415Z,8.25
2022-07-31T21:45:50.702Z,6.07
2022-07-31T21:48:24.761Z,5.65
2022-07-31T21:50:54.637Z,4.85
2022-07-31T21:53:22.157Z,5.80
2022-07-31T21:55:49.926Z,5.38
2022-07-31T21:58:17.989Z,6.38
2022-07-31T22:00:45.681Z,5.30
2022-07-31T22:03:13.251Z,6.35
2022-07-31T22:05:58.312Z,6.65
2022-07-31T22:08:27.197Z,10.55
2022-07-31T22:10:54.759Z,7.60
2022-07-31T22:13:22.331Z,5.13
2022-07-31T22:15:51.407Z,7.57
2022-07-31T22:18:27.260Z,4.88
2022-07-31T22:20:54.837Z,7.60
2022-07-31T22:23:23.842Z,4.75
2022-07-31T22:25:52.750Z,4.80
2022-07-31T22:28:21.531Z,4.68
2022-07-31T22:30:49.375Z,5.45
2022-07-31T22:33:17.179Z,4.10
2022-07-31T22:35:44.838Z,6.65
2022-07-31T22:38:27.425Z,4.10
2022-07-31T22:40:56.364Z,5.93
2022-07-31T22:44:14.159Z,3.13
2022-07-31T22:46:12.889Z,4.47
2022-07-31T22:48:41.195Z,3.95
2022-07-31T22:51:10.817Z,3.35
2022-07-31T22:53:42.059Z,4.97
2022-07-31T22:56:10.895Z,3.63
2022-07-31T22:58:38.389Z,3.83
2022-07-31T23:01:05.977Z,4.35
2022-07-31T23:03:33.501Z,4.53
2022-07-31T23:06:03.633Z,5.82
2022-07-31T23:08:50.757Z,9.20
2022-07-31T23:11:22.735Z,5.10
2022-07-31T23:13:50.255Z,3.40
2022-07-31T23:16:17.727Z,3.63
2022-07-31T23:18:45.207Z,6.22
2022-07-31T23:21:12.861Z,5.18
2022-07-31T23:23:40.347Z,3.95
2022-07-31T23:26:07.844Z,4.30
2022-07-31T23:28:36.718Z,3.72
2022-07-31T23:31:04.237Z,6.40
2022-07-31T23:33:31.737Z,6.30
2022-07-31T23:36:00.849Z,5.22
2022-07-31T23:38:28.397Z,4.20
2022-07-31T23:40:56.339Z,4.15
2022-07-31T23:43:22.837Z,4.25
2022-07-31T23:45:51.731Z,5.25
2022-07-31T23:48:19.800Z,5.35
2022-07-31T23:50:48.859Z,4.60
2022-07-31T23:53:16.558Z,5.97
2022-07-31T23:55:44.061Z,4.25
2022-07-31T23:58:12.376Z,4.80
